sensor_id;sensor_type;location;lat;lon;timestamp;pressure;altitude;pressure_sealevel;temperature
54746;BMP180;40640;48.130;11.356;2023-05-27T00:01:58;96291.00;;;16.80
54746;BMP180;40640;48.130;11.356;2023-05-27T00:06:02;96285.00;;;16.70
54746;BMP180;40640;48.130;11.356;2023-05-27T00:10:05;96283.00;;;16.60
54746;BMP180;40640;48.130;11.356;2023-05-27T00:14:09;96281.00;;;16.50
54746;BMP180;40640;48.130;11.356;2023-05-27T00:18:13;96285.00;;;16.50
54746;BMP180;40640;48.130;11.356;2023-05-27T00:22:17;96278.00;;;16.40
54746;BMP180;40640;48.130;11.356;2023-05-27T00:26:20;96279.00;;;16.30
54746;BMP180;40640;48.130;11.356;2023-05-27T00:30:26;96274.00;;;16.30
54746;BMP180;40640;48.130;11.356;2023-05-27T00:34:30;96279.00;;;16.20
54746;BMP180;40640;48.130;11.356;2023-05-27T00:38:33;96276.00;;;16.10
54746;BMP180;40640;48.130;11.356;2023-05-27T00:42:37;96274.00;;;16.10
54746;BMP180;40640;48.130;11.356;2023-05-27T00:46:40;96269.00;;;16.00
54746;BMP180;40640;48.130;11.356;2023-05-27T00:50:44;96275.00;;;16.00
54746;BMP180;40640;48.130;11.356;2023-05-27T00:54:47;96268.00;;;15.90
54746;BMP180;40640;48.130;11.356;2023-05-27T00:58:51;96266.00;;;15.90
54746;BMP180;40640;48.130;11.356;2023-05-27T01:02:54;96258.00;;;15.80
54746;BMP180;40640;48.130;11.356;2023-05-27T01:07:06;96259.00;;;15.80
54746;BMP180;40640;48.130;11.356;2023-05-27T01:11:12;96260.00;;;15.70
54746;BMP180;40640;48.130;11.356;2023-05-27T01:15:16;96258.00;;;15.70
54746;BMP180;40640;48.130;11.356;2023-05-27T01:19:27;96264.00;;;15.60
54746;BMP180;40640;48.130;11.356;2023-05-27T01:23:34;96255.00;;;15.60
54746;BMP180;40640;48.130;11.356;2023-05-27T01:27:40;96264.00;;;15.60
54746;BMP180;40640;48.130;11.356;2023-05-27T01:31:49;96252.00;;;15.50
54746;BMP180;40640;48.130;11.356;2023-05-27T01:35:56;96258.00;;;15.40
54746;BMP180;40640;48.130;11.356;2023-05-27T01:40:02;96248.00;;;15.40
54746;BMP180;40640;48.130;11.356;2023-05-27T01:44:07;96248.00;;;15.30
54746;BMP180;40640;48.130;11.356;2023-05-27T01:48:11;96243.00;;;15.30
54746;BMP180;40640;48.130;11.356;2023-05-27T01:52:14;96243.00;;;15.20
54746;BMP180;40640;48.130;11.356;2023-05-27T01:56:18;96248.00;;;15.20
54746;BMP180;40640;48.130;11.356;2023-05-27T02:00:23;96251.00;;;15.10
54746;BMP180;40640;48.130;11.356;2023-05-27T02:04:26;96242.00;;;15.10
54746;BMP180;40640;48.130;11.356;2023-05-27T02:08:29;96244.00;;;15.00
54746;BMP180;40640;48.130;11.356;2023-05-27T02:12:34;96237.00;;;14.90
54746;BMP180;40640;48.130;11.356;2023-05-27T02:16:37;96248.00;;;14.90
54746;BMP180;40640;48.130;11.356;2023-05-27T02:20:41;96235.00;;;14.80
54746;BMP180;40640;48.130;11.356;2023-05-27T02:24:44;96231.00;;;14.80
54746;BMP180;40640;48.130;11.356;2023-05-27T02:28:50;96235.00;;;14.80
54746;BMP180;40640;48.130;11.356;2023-05-27T02:32:53;96234.00;;;14.70
54746;BMP180;40640;48.130;11.356;2023-05-27T02:36:56;96229.00;;;14.60
54746;BMP180;40640;48.130;11.356;2023-05-27T02:41:01;96220.00;;;14.60
54746;BMP180;40640;48.130;11.356;2023-05-27T02:45:07;96228.00;;;14.60
54746;BMP180;40640;48.130;11.356;2023-05-27T02:49:10;96228.00;;;14.50
54746;BMP180;40640;48.130;11.356;2023-05-27T02:53:13;96231.00;;;14.50
54746;BMP180;40640;48.130;11.356;2023-05-27T02:57:17;96227.00;;;14.50
54746;BMP180;40640;48.130;11.356;2023-05-27T03:01:22;96227.00;;;14.50
54746;BMP180;40640;48.130;11.356;2023-05-27T03:05:25;96232.00;;;14.40
54746;BMP180;40640;48.130;11.356;2023-05-27T03:09:28;96222.00;;;14.40
54746;BMP180;40640;48.130;11.356;2023-05-27T03:13:32;96218.00;;;14.30
54746;BMP180;40640;48.130;11.356;2023-05-27T03:17:37;96218.00;;;14.30
54746;BMP180;40640;48.130;11.356;2023-05-27T03:21:40;96216.00;;;14.20
54746;BMP180;40640;48.130;11.356;2023-05-27T03:25:43;96233.00;;;14.20
54746;BMP180;40640;48.130;11.356;2023-05-27T03:29:46;96219.00;;;14.20
54746;BMP180;40640;48.130;11.356;2023-05-27T03:33:51;96230.00;;;14.20
54746;BMP180;40640;48.130;11.356;2023-05-27T03:37:54;96227.00;;;14.10
54746;BMP180;40640;48.130;11.356;2023-05-27T03:41:57;96215.00;;;14.10
54746;BMP180;40640;48.130;11.356;2023-05-27T03:46:01;96216.00;;;14.10
54746;BMP180;40640;48.130;11.356;2023-05-27T03:50:06;96215.00;;;14.10
54746;BMP180;40640;48.130;11.356;2023-05-27T03:54:09;96217.00;;;14.20
54746;BMP180;40640;48.130;11.356;2023-05-27T03:58:12;96218.00;;;14.20
54746;BMP180;40640;48.130;11.356;2023-05-27T04:02:15;96209.00;;;14.10
54746;BMP180;40640;48.130;11.356;2023-05-27T04:06:20;96216.00;;;14.20
54746;BMP180;40640;48.130;11.356;2023-05-27T04:10:23;96212.00;;;14.20
54746;BMP180;40640;48.130;11.356;2023-05-27T04:14:28;96215.00;;;14.20
54746;BMP180;40640;48.130;11.356;2023-05-27T04:18:32;96210.00;;;14.20
54746;BMP180;40640;48.130;11.356;2023-05-27T04:22:36;96206.00;;;14.20
54746;BMP180;40640;48.130;11.356;2023-05-27T04:26:39;96211.00;;;14.30
54746;BMP180;40640;48.130;11.356;2023-05-27T04:30:43;96218.00;;;14.30
54746;BMP180;40640;48.130;11.356;2023-05-27T04:34:54;96229.00;;;14.40
54746;BMP180;40640;48.130;11.356;2023-05-27T04:39:00;96217.00;;;14.40
54746;BMP180;40640;48.130;11.356;2023-05-27T04:43:06;96229.00;;;14.50
54746;BMP180;40640;48.130;11.356;2023-05-27T04:47:09;96208.00;;;14.50
54746;BMP180;40640;48.130;11.356;2023-05-27T04:51:12;96212.00;;;14.50
54746;BMP180;40640;48.130;11.356;2023-05-27T04:55:19;96209.00;;;14.60
54746;BMP180;40640;48.130;11.356;2023-05-27T04:59:22;96220.00;;;14.70
54746;BMP180;40640;48.130;11.356;2023-05-27T05:03:32;96211.00;;;14.70
54746;BMP180;40640;48.130;11.356;2023-05-27T05:07:42;96216.00;;;14.90
54746;BMP180;40640;48.130;11.356;2023-05-27T05:11:48;96206.00;;;15.00
54746;BMP180;40640;48.130;11.356;2023-05-27T05:15:51;96218.00;;;15.10
54746;BMP180;40640;48.130;11.356;2023-05-27T05:19:56;96223.00;;;15.20
54746;BMP180;40640;48.130;11.356;2023-05-27T05:24:00;96219.00;;;15.50
54746;BMP180;40640;48.130;11.356;2023-05-27T05:28:06;96229.00;;;15.70
54746;BMP180;40640;48.130;11.356;2023-05-27T05:32:11;96227.00;;;16.10
54746;BMP180;40640;48.130;11.356;2023-05-27T05:36:15;96230.00;;;17.20
54746;BMP180;40640;48.130;11.356;2023-05-27T05:40:39;96235.00;;;18.40
54746;BMP180;40640;48.130;11.356;2023-05-27T05:44:51;96234.00;;;19.80
54746;BMP180;40640;48.130;11.356;2023-05-27T05:48:54;96230.00;;;21.50
54746;BMP180;40640;48.130;11.356;2023-05-27T05:53:07;96235.00;;;23.10
54746;BMP180;40640;48.130;11.356;2023-05-27T05:57:10;96234.00;;;24.20
54746;BMP180;40640;48.130;11.356;2023-05-27T06:01:15;96239.00;;;25.20
54746;BMP180;40640;48.130;11.356;2023-05-27T06:05:18;96238.00;;;24.40
54746;BMP180;40640;48.130;11.356;2023-05-27T06:09:22;96240.00;;;24.90
54746;BMP180;40640;48.130;11.356;2023-05-27T06:13:29;96248.00;;;25.80
54746;BMP180;40640;48.130;11.356;2023-05-27T06:17:35;96248.00;;;26.30
54746;BMP180;40640;48.130;11.356;2023-05-27T06:21:38;96246.00;;;24.40
54746;BMP180;40640;48.130;11.356;2023-05-27T06:26:03;96255.00;;;23.30
54746;BMP180;40640;48.130;11.356;2023-05-27T06:30:14;96253.00;;;22.00
54746;BMP180;40640;48.130;11.356;2023-05-27T06:34:20;96255.00;;;21.60
54746;BMP180;40640;48.130;11.356;2023-05-27T06:38:23;96257.00;;;21.00
54746;BMP180;40640;48.130;11.356;2023-05-27T06:42:28;96244.00;;;20.80
54746;BMP180;40640;48.130;11.356;2023-05-27T06:46:51;96252.00;;;21.00
54746;BMP180;40640;48.130;11.356;2023-05-27T06:51:05;96254.00;;;21.10
54746;BMP180;40640;48.130;11.356;2023-05-27T06:55:08;96250.00;;;21.00
54746;BMP180;40640;48.130;11.356;2023-05-27T06:59:29;96246.00;;;21.00
54746;BMP180;40640;48.130;11.356;2023-05-27T07:03:32;96249.00;;;20.80
54746;BMP180;40640;48.130;11.356;2023-05-27T07:07:38;96245.00;;;20.40
54746;BMP180;40640;48.130;11.356;2023-05-27T07:11:41;96257.00;;;20.00
54746;BMP180;40640;48.130;11.356;2023-05-27T07:15:49;96252.00;;;20.10
54746;BMP180;40640;48.130;11.356;2023-05-27T07:19:52;96252.00;;;20.10
54746;BMP180;40640;48.130;11.356;2023-05-27T07:23:57;96239.00;;;20.10
54746;BMP180;40640;48.130;11.356;2023-05-27T07:28:08;96245.00;;;20.30
54746;BMP180;40640;48.130;11.356;2023-05-27T07:32:17;96248.00;;;20.60
54746;BMP180;40640;48.130;11.356;2023-05-27T07:36:20;96248.00;;;20.60
54746;BMP180;40640;48.130;11.356;2023-05-27T07:40:25;96238.00;;;20.80
54746;BMP180;40640;48.130;11.356;2023-05-27T07:44:28;96239.00;;;20.80
54746;BMP180;40640;48.130;11.356;2023-05-27T07:48:31;96239.00;;;21.00
54746;BMP180;40640;48.130;11.356;2023-05-27T07:52:34;96234.00;;;21.30
54746;BMP180;40640;48.130;11.356;2023-05-27T07:56:48;96231.00;;;21.30
54746;BMP180;40640;48.130;11.356;2023-05-27T08:00:51;96237.00;;;21.30
54746;BMP180;40640;48.130;11.356;2023-05-27T08:04:55;96237.00;;;21.60
54746;BMP180;40640;48.130;11.356;2023-05-27T08:09:16;96233.00;;;21.90
54746;BMP180;40640;48.130;11.356;2023-05-27T08:13:53;96232.00;;;21.90
54746;BMP180;40640;48.130;11.356;2023-05-27T08:18:10;96227.00;;;22.10
54746;BMP180;40640;48.130;11.356;2023-05-27T08:22:32;96227.00;;;22.40
54746;BMP180;40640;48.130;11.356;2023-05-27T08:26:54;96217.00;;;22.50
54746;BMP180;40640;48.130;11.356;2023-05-27T08:31:11;96212.00;;;22.10
54746;BMP180;40640;48.130;11.356;2023-05-27T08:35:18;96216.00;;;22.00
54746;BMP180;40640;48.130;11.356;2023-05-27T08:39:21;96213.00;;;22.10
54746;BMP180;40640;48.130;11.356;2023-05-27T08:43:35;96215.00;;;22.30
54746;BMP180;40640;48.130;11.356;2023-05-27T08:47:40;96205.00;;;22.50
54746;BMP180;40640;48.130;11.356;2023-05-27T08:51:50;96218.00;;;22.40
54746;BMP180;40640;48.130;11.356;2023-05-27T08:55:57;96219.00;;;22.10
54746;BMP180;40640;48.130;11.356;2023-05-27T09:00:05;96210.00;;;22.20
54746;BMP180;40640;48.130;11.356;2023-05-27T09:04:14;96205.00;;;22.00
54746;BMP180;40640;48.130;11.356;2023-05-27T09:08:17;96189.00;;;22.30
54746;BMP180;40640;48.130;11.356;2023-05-27T09:12:22;96199.00;;;22.20
54746;BMP180;40640;48.130;11.356;2023-05-27T09:16:25;96199.00;;;22.20
54746;BMP180;40640;48.130;11.356;2023-05-27T09:20:29;96202.00;;;22.50
54746;BMP180;40640;48.130;11.356;2023-05-27T09:24:32;96190.00;;;22.40
54746;BMP180;40640;48.130;11.356;2023-05-27T09:28:36;96194.00;;;22.40
54746;BMP180;40640;48.130;11.356;2023-05-27T09:32:39;96194.00;;;22.50
54746;BMP180;40640;48.130;11.356;2023-05-27T09:36:44;96199.00;;;22.40
54746;BMP180;40640;48.130;11.356;2023-05-27T09:40:47;96194.00;;;22.60
54746;BMP180;40640;48.130;11.356;2023-05-27T09:44:55;96185.00;;;22.60
54746;BMP180;40640;48.130;11.356;2023-05-27T09:48:58;96193.00;;;22.80
54746;BMP180;40640;48.130;11.356;2023-05-27T09:53:03;96179.00;;;22.50
54746;BMP180;40640;48.130;11.356;2023-05-27T09:57:12;96183.00;;;22.80
54746;BMP180;40640;48.130;11.356;2023-05-27T10:01:16;96180.00;;;23.00
54746;BMP180;40640;48.130;11.356;2023-05-27T10:05:20;96175.00;;;23.00
54746;BMP180;40640;48.130;11.356;2023-05-27T10:09:25;96182.00;;;22.70
54746;BMP180;40640;48.130;11.356;2023-05-27T10:13:29;96181.00;;;22.50
54746;BMP180;40640;48.130;11.356;2023-05-27T10:17:42;96170.00;;;22.80
54746;BMP180;40640;48.130;11.356;2023-05-27T10:21:45;96176.00;;;22.70
54746;BMP180;40640;48.130;11.356;2023-05-27T10:25:51;96171.00;;;22.60
54746;BMP180;40640;48.130;11.356;2023-05-27T10:29:57;96170.00;;;22.80
54746;BMP180;40640;48.130;11.356;2023-05-27T10:34:04;96167.00;;;22.90
54746;BMP180;40640;48.130;11.356;2023-05-27T10:38:14;96162.00;;;22.70
54746;BMP180;40640;48.130;11.356;2023-05-27T10:42:22;96160.00;;;22.90
54746;BMP180;40640;48.130;11.356;2023-05-27T10:46:26;96155.00;;;23.20
54746;BMP180;40640;48.130;11.356;2023-05-27T10:50:31;96155.00;;;23.10
54746;BMP180;40640;48.130;11.356;2023-05-27T10:54:36;96138.00;;;23.30
54746;BMP180;40640;48.130;11.356;2023-05-27T10:58:40;96144.00;;;23.60
54746;BMP180;40640;48.130;11.356;2023-05-27T11:02:44;96136.00;;;23.80
54746;BMP180;40640;48.130;11.356;2023-05-27T11:06:56;96136.00;;;23.60
54746;BMP180;40640;48.130;11.356;2023-05-27T11:11:06;96133.00;;;23.50
54746;BMP180;40640;48.130;11.356;2023-05-27T11:15:10;96132.00;;;23.90
54746;BMP180;40640;48.130;11.356;2023-05-27T11:19:13;96129.00;;;24.20
54746;BMP180;40640;48.130;11.356;2023-05-27T11:23:16;96126.00;;;24.00
54746;BMP180;40640;48.130;11.356;2023-05-27T11:27:19;96123.00;;;23.90
54746;BMP180;40640;48.130;11.356;2023-05-27T11:31:28;96114.00;;;24.10
54746;BMP180;40640;48.130;11.356;2023-05-27T11:35:33;96115.00;;;24.40
54746;BMP180;40640;48.130;11.356;2023-05-27T11:39:36;96111.00;;;24.50
54746;BMP180;40640;48.130;11.356;2023-05-27T11:43:46;96098.00;;;24.70
54746;BMP180;40640;48.130;11.356;2023-05-27T11:47:51;96101.00;;;25.00
54746;BMP180;40640;48.130;11.356;2023-05-27T11:51:56;96096.00;;;25.00
54746;BMP180;40640;48.130;11.356;2023-05-27T11:55:59;96093.00;;;25.20
54746;BMP180;40640;48.130;11.356;2023-05-27T12:00:03;96090.00;;;26.20
54746;BMP180;40640;48.130;11.356;2023-05-27T12:04:11;96083.00;;;26.00
54746;BMP180;40640;48.130;11.356;2023-05-27T12:08:14;96087.00;;;26.20
54746;BMP180;40640;48.130;11.356;2023-05-27T12:12:18;96077.00;;;28.20
54746;BMP180;40640;48.130;11.356;2023-05-27T12:16:22;96080.00;;;29.10
54746;BMP180;40640;48.130;11.356;2023-05-27T12:20:26;96062.00;;;30.60
54746;BMP180;40640;48.130;11.356;2023-05-27T12:24:30;96059.00;;;29.40
54746;BMP180;40640;48.130;11.356;2023-05-27T12:28:36;96056.00;;;29.00
54746;BMP180;40640;48.130;11.356;2023-05-27T12:32:39;96065.00;;;30.70
54746;BMP180;40640;48.130;11.356;2023-05-27T12:36:45;96065.00;;;31.10
54746;BMP180;40640;48.130;11.356;2023-05-27T12:40:49;96064.00;;;29.60
54746;BMP180;40640;48.130;11.356;2023-05-27T12:44:52;96057.00;;;30.00
54746;BMP180;40640;48.130;11.356;2023-05-27T12:48:55;96051.00;;;30.90
54746;BMP180;40640;48.130;11.356;2023-05-27T12:52:59;96049.00;;;31.20
54746;BMP180;40640;48.130;11.356;2023-05-27T12:57:02;96047.00;;;31.80
54746;BMP180;40640;48.130;11.356;2023-05-27T13:01:06;96048.00;;;31.50
54746;BMP180;40640;48.130;11.356;2023-05-27T13:05:14;96032.00;;;31.10
54746;BMP180;40640;48.130;11.356;2023-05-27T13:09:18;96030.00;;;31.00
54746;BMP180;40640;48.130;11.356;2023-05-27T13:13:21;96028.00;;;30.40
54746;BMP180;40640;48.130;11.356;2023-05-27T13:17:24;96035.00;;;30.30
54746;BMP180;40640;48.130;11.356;2023-05-27T13:21:27;96028.00;;;29.60
54746;BMP180;40640;48.130;11.356;2023-05-27T13:25:31;96038.00;;;29.50
54746;BMP180;40640;48.130;11.356;2023-05-27T13:29:34;96030.00;;;28.80
54746;BMP180;40640;48.130;11.356;2023-05-27T13:33:37;96028.00;;;28.80
54746;BMP180;40640;48.130;11.356;2023-05-27T13:37:41;96021.00;;;27.20
54746;BMP180;40640;48.130;11.356;2023-05-27T13:41:45;96010.00;;;26.50
54746;BMP180;40640;48.130;11.356;2023-05-27T13:45:48;96016.00;;;26.30
54746;BMP180;40640;48.130;11.356;2023-05-27T13:49:51;96013.00;;;25.70
54746;BMP180;40640;48.130;11.356;2023-05-27T13:53:54;96010.00;;;25.10
54746;BMP180;40640;48.130;11.356;2023-05-27T13:57:59;96005.00;;;24.80
54746;BMP180;40640;48.130;11.356;2023-05-27T14:02:02;96003.00;;;24.90
54746;BMP180;40640;48.130;11.356;2023-05-27T14:06:07;96002.00;;;24.60
54746;BMP180;40640;48.130;11.356;2023-05-27T14:10:11;95993.00;;;24.80
54746;BMP180;40640;48.130;11.356;2023-05-27T14:14:15;95983.00;;;24.70
54746;BMP180;40640;48.130;11.356;2023-05-27T14:18:18;95990.00;;;24.30
54746;BMP180;40640;48.130;11.356;2023-05-27T14:22:21;95986.00;;;23.90
54746;BMP180;40640;48.130;11.356;2023-05-27T14:26:24;95964.00;;;24.10
54746;BMP180;40640;48.130;11.356;2023-05-27T14:30:28;95962.00;;;24.30
54746;BMP180;40640;48.130;11.356;2023-05-27T14:34:32;95950.00;;;24.40
54746;BMP180;40640;48.130;11.356;2023-05-27T14:38:35;95975.00;;;24.20
54746;BMP180;40640;48.130;11.356;2023-05-27T14:42:38;95970.00;;;23.80
54746;BMP180;40640;48.130;11.356;2023-05-27T14:46:42;95957.00;;;23.90
54746;BMP180;40640;48.130;11.356;2023-05-27T14:50:45;95954.00;;;24.00
54746;BMP180;40640;48.130;11.356;2023-05-27T14:54:48;95949.00;;;23.60
54746;BMP180;40640;48.130;11.356;2023-05-27T14:58:51;95949.00;;;23.40
54746;BMP180;40640;48.130;11.356;2023-05-27T15:02:55;95952.00;;;23.40
54746;BMP180;40640;48.130;11.356;2023-05-27T15:06:58;95958.00;;;23.50
54746;BMP180;40640;48.130;11.356;2023-05-27T15:11:01;95958.00;;;23.40
54746;BMP180;40640;48.130;11.356;2023-05-27T15:15:05;95949.00;;;23.40
54746;BMP180;40640;48.130;11.356;2023-05-27T15:19:10;95946.00;;;23.40
54746;BMP180;40640;48.130;11.356;2023-05-27T15:23:13;95948.00;;;23.40
54746;BMP180;40640;48.130;11.356;2023-05-27T15:27:15;95951.00;;;23.40
54746;BMP180;40640;48.130;11.356;2023-05-27T15:31:19;95947.00;;;23.50
54746;BMP180;40640;48.130;11.356;2023-05-27T15:35:25;95945.00;;;23.40
54746;BMP180;40640;48.130;11.356;2023-05-27T15:39:29;95943.00;;;23.60
54746;BMP180;40640;48.130;11.356;2023-05-27T15:43:32;95938.00;;;23.50
54746;BMP180;40640;48.130;11.356;2023-05-27T15:47:35;95936.00;;;23.50
54746;BMP180;40640;48.130;11.356;2023-05-27T15:51:39;95933.00;;;23.40
54746;BMP180;40640;48.130;11.356;2023-05-27T15:55:42;95928.00;;;23.20
54746;BMP180;40640;48.130;11.356;2023-05-27T15:59:45;95932.00;;;23.10
54746;BMP180;40640;48.130;11.356;2023-05-27T16:03:50;95928.00;;;22.80
54746;BMP180;40640;48.130;11.356;2023-05-27T16:07:54;95929.00;;;23.00
54746;BMP180;40640;48.130;11.356;2023-05-27T16:11:57;95925.00;;;23.10
54746;BMP180;40640;48.130;11.356;2023-05-27T16:15:59;95926.00;;;23.20
54746;BMP180;40640;48.130;11.356;2023-05-27T16:20:03;95921.00;;;23.20
54746;BMP180;40640;48.130;11.356;2023-05-27T16:24:07;95911.00;;;23.20
54746;BMP180;40640;48.130;11.356;2023-05-27T16:28:11;95905.00;;;23.20
54746;BMP180;40640;48.130;11.356;2023-05-27T16:32:14;95911.00;;;23.10
54746;BMP180;40640;48.130;11.356;2023-05-27T16:36:17;95912.00;;;23.10
54746;BMP180;40640;48.130;11.356;2023-05-27T16:40:21;95905.00;;;23.00
54746;BMP180;40640;48.130;11.356;2023-05-27T16:44:24;95907.00;;;23.00
54746;BMP180;40640;48.130;11.356;2023-05-27T16:48:27;95901.00;;;22.50
54746;BMP180;40640;48.130;11.356;2023-05-27T16:52:30;95899.00;;;22.60
54746;BMP180;40640;48.130;11.356;2023-05-27T16:56:34;95905.00;;;22.70
54746;BMP180;40640;48.130;11.356;2023-05-27T17:00:38;95893.00;;;22.30
54746;BMP180;40640;48.130;11.356;2023-05-27T17:04:41;95887.00;;;22.40
54746;BMP180;40640;48.130;11.356;2023-05-27T17:08:43;95889.00;;;22.40
54746;BMP180;40640;48.130;11.356;2023-05-27T17:12:49;95896.00;;;22.20
54746;BMP180;40640;48.130;11.356;2023-05-27T17:16:53;95894.00;;;22.20
54746;BMP180;40640;48.130;11.356;2023-05-27T17:20:56;95893.00;;;22.30
54746;BMP180;40640;48.130;11.356;2023-05-27T17:24:59;95892.00;;;22.30
54746;BMP180;40640;48.130;11.356;2023-05-27T17:29:04;95896.00;;;22.10
54746;BMP180;40640;48.130;11.356;2023-05-27T17:33:07;95896.00;;;21.90
54746;BMP180;40640;48.130;11.356;2023-05-27T17:37:10;95894.00;;;21.80
54746;BMP180;40640;48.130;11.356;2023-05-27T17:41:13;95889.00;;;21.50
54746;BMP180;40640;48.130;11.356;2023-05-27T17:45:17;95891.00;;;21.50
54746;BMP180;40640;48.130;11.356;2023-05-27T17:49:20;95901.00;;;21.70
54746;BMP180;40640;48.130;11.356;2023-05-27T17:53:23;95898.00;;;21.70
54746;BMP180;40640;48.130;11.356;2023-05-27T17:57:26;95905.00;;;21.70
54746;BMP180;40640;48.130;11.356;2023-05-27T18:01:31;95904.00;;;21.60
54746;BMP180;40640;48.130;11.356;2023-05-27T18:05:34;95915.00;;;21.50
54746;BMP180;40640;48.130;11.356;2023-05-27T18:09:38;95911.00;;;21.50
54746;BMP180;40640;48.130;11.356;2023-05-27T18:13:41;95907.00;;;21.30
54746;BMP180;40640;48.130;11.356;2023-05-27T18:17:45;95903.00;;;21.20
54746;BMP180;40640;48.130;11.356;2023-05-27T18:21:48;95912.00;;;21.10
54746;BMP180;40640;48.130;11.356;2023-05-27T18:25:51;95912.00;;;20.90
54746;BMP180;40640;48.130;11.356;2023-05-27T18:29:54;95910.00;;;20.90
54746;BMP180;40640;48.130;11.356;2023-05-27T18:33:58;95920.00;;;20.70
54746;BMP180;40640;48.130;11.356;2023-05-27T18:38:01;95915.00;;;20.60
54746;BMP180;40640;48.130;11.356;2023-05-27T18:42:04;95906.00;;;20.50
54746;BMP180;40640;48.130;11.356;2023-05-27T18:46:08;95905.00;;;20.40
54746;BMP180;40640;48.130;11.356;2023-05-27T18:50:13;95914.00;;;20.30
54746;BMP180;40640;48.130;11.356;2023-05-27T18:54:32;95906.00;;;20.10
54746;BMP180;40640;48.130;11.356;2023-05-27T18:58:35;95913.00;;;20.00
54746;BMP180;40640;48.130;11.356;2023-05-27T19:02:38;95918.00;;;20.00
54746;BMP180;40640;48.130;11.356;2023-05-27T19:06:43;95917.00;;;20.00
54746;BMP180;40640;48.130;11.356;2023-05-27T19:10:45;95921.00;;;19.80
54746;BMP180;40640;48.130;11.356;2023-05-27T19:14:48;95920.00;;;19.80
54746;BMP180;40640;48.130;11.356;2023-05-27T19:18:51;95922.00;;;19.70
54746;BMP180;40640;48.130;11.356;2023-05-27T19:22:56;95919.00;;;19.60
54746;BMP180;40640;48.130;11.356;2023-05-27T19:27:00;95921.00;;;19.50
54746;BMP180;40640;48.130;11.356;2023-05-27T19:31:03;95923.00;;;19.40
54746;BMP180;40640;48.130;11.356;2023-05-27T19:35:11;95928.00;;;19.40
54746;BMP180;40640;48.130;11.356;2023-05-27T19:39:16;95932.00;;;19.30
54746;BMP180;40640;48.130;11.356;2023-05-27T19:43:18;95925.00;;;19.30
54746;BMP180;40640;48.130;11.356;2023-05-27T19:47:22;95932.00;;;19.20
54746;BMP180;40640;48.130;11.356;2023-05-27T19:51:25;95927.00;;;19.10
54746;BMP180;40640;48.130;11.356;2023-05-27T19:55:29;95927.00;;;19.10
54746;BMP180;40640;48.130;11.356;2023-05-27T19:59:32;95923.00;;;19.00
54746;BMP180;40640;48.130;11.356;2023-05-27T20:03:36;95924.00;;;18.90
54746;BMP180;40640;48.130;11.356;2023-05-27T20:07:39;95924.00;;;18.80
54746;BMP180;40640;48.130;11.356;2023-05-27T20:11:43;95931.00;;;18.80
54746;BMP180;40640;48.130;11.356;2023-05-27T20:15:46;95926.00;;;18.70
54746;BMP180;40640;48.130;11.356;2023-05-27T20:19:49;95925.00;;;18.60
54746;BMP180;40640;48.130;11.356;2023-05-27T20:23:52;95920.00;;;18.50
54746;BMP180;40640;48.130;11.356;2023-05-27T20:27:59;95926.00;;;18.50
54746;BMP180;40640;48.130;11.356;2023-05-27T20:32:02;95918.00;;;18.40
54746;BMP180;40640;48.130;11.356;2023-05-27T20:36:05;95921.00;;;18.40
54746;BMP180;40640;48.130;11.356;2023-05-27T20:40:08;95918.00;;;18.30
54746;BMP180;40640;48.130;11.356;2023-05-27T20:44:13;95918.00;;;18.20
54746;BMP180;40640;48.130;11.356;2023-05-27T20:48:16;95921.00;;;18.20
54746;BMP180;40640;48.130;11.356;2023-05-27T20:52:19;95917.00;;;18.10
54746;BMP180;40640;48.130;11.356;2023-05-27T20:56:22;95916.00;;;18.00
54746;BMP180;40640;48.130;11.356;2023-05-27T21:00:30;95913.00;;;17.90
54746;BMP180;40640;48.130;11.356;2023-05-27T21:04:33;95919.00;;;17.80
54746;BMP180;40640;48.130;11.356;2023-05-27T21:08:36;95915.00;;;17.70
54746;BMP180;40640;48.130;11.356;2023-05-27T21:12:39;95913.00;;;17.70
54746;BMP180;40640;48.130;11.356;2023-05-27T21:16:44;95916.00;;;17.50
54746;BMP180;40640;48.130;11.356;2023-05-27T21:20:47;95911.00;;;17.30
54746;BMP180;40640;48.130;11.356;2023-05-27T21:24:52;95904.00;;;17.10
54746;BMP180;40640;48.130;11.356;2023-05-27T21:28:54;95901.00;;;16.80
54746;BMP180;40640;48.130;11.356;2023-05-27T21:32:59;95905.00;;;16.60
54746;BMP180;40640;48.130;11.356;2023-05-27T21:37:02;95908.00;;;16.60
54746;BMP180;40640;48.130;11.356;2023-05-27T21:41:05;95898.00;;;16.50
54746;BMP180;40640;48.130;11.356;2023-05-27T21:45:09;95907.00;;;16.60
54746;BMP180;40640;48.130;11.356;2023-05-27T21:49:13;95895.00;;;16.50
54746;BMP180;40640;48.130;11.356;2023-05-27T21:53:16;95895.00;;;16.50
54746;BMP180;40640;48.130;11.356;2023-05-27T21:57:19;95887.00;;;16.50
54746;BMP180;40640;48.130;11.356;2023-05-27T22:01:22;95882.00;;;16.50
54746;BMP180;40640;48.130;11.356;2023-05-27T22:05:26;95887.00;;;16.40
54746;BMP180;40640;48.130;11.356;2023-05-27T22:09:29;95889.00;;;16.40
54746;BMP180;40640;48.130;11.356;2023-05-27T22:13:32;95875.00;;;16.20
54746;BMP180;40640;48.130;11.356;2023-05-27T22:17:35;95885.00;;;16.10
54746;BMP180;40640;48.130;11.356;2023-05-27T22:21:39;95884.00;;;16.10
54746;BMP180;40640;48.130;11.356;2023-05-27T22:25:42;95874.00;;;16.00
54746;BMP180;40640;48.130;11.356;2023-05-27T22:29:45;95879.00;;;16.00
54746;BMP180;40640;48.130;11.356;2023-05-27T22:33:48;95882.00;;;16.00
54746;BMP180;40640;48.130;11.356;2023-05-27T22:37:52;95883.00;;;15.80
54746;BMP180;40640;48.130;11.356;2023-05-27T22:41:55;95864.00;;;15.80
54746;BMP180;40640;48.130;11.356;2023-05-27T22:45:58;95868.00;;;15.80
54746;BMP180;40640;48.130;11.356;2023-05-27T22:50:01;95853.00;;;15.70
54746;BMP180;40640;48.130;11.356;2023-05-27T22:54:05;95858.00;;;15.70
54746;BMP180;40640;48.130;11.356;2023-05-27T22:58:08;95858.00;;;15.60
54746;BMP180;40640;48.130;11.356;2023-05-27T23:02:11;95853.00;;;15.50
54746;BMP180;40640;48.130;11.356;2023-05-27T23:06:14;95847.00;;;15.50
54746;BMP180;40640;48.130;11.356;2023-05-27T23:10:18;95842.00;;;15.40